sensor_id;sensor_type;location;lat;lon;timestamp;temperature;humidity
9537;DHT22;4807;48.024;11.726;2023-01-19T00:00:12;-0.70;99.90
9537;DHT22;4807;48.024;11.726;2023-01-19T00:03:21;-0.70;99.90
9537;DHT22;4807;48.024;11.726;2023-01-19T00:06:29;-0.60;99.90
9537;DHT22;4807;48.024;11.726;2023-01-19T00:09:38;-0.70;99.90
9537;DHT22;4807;48.024;11.726;2023-01-19T00:12:47;-0.70;99.90
9537;DHT22;4807;48.024;11.726;2023-01-19T00:15:56;-0.70;99.90
9537;DHT22;4807;48.024;11.726;2023-01-19T00:19:04;-0.60;99.90
9537;DHT22;4807;48.024;11.726;2023-01-19T00:22:12;-0.70;99.90
9537;DHT22;4807;48.024;11.726;2023-01-19T00:25:22;-0.70;99.90
9537;DHT22;4807;48.024;11.726;2023-01-19T00:28:32;-0.70;99.90
9537;DHT22;4807;48.024;11.726;2023-01-19T00:31:40;-0.80;99.90
9537;DHT22;4807;48.024;11.726;2023-01-19T00:34:50;-0.70;99.90
9537;DHT22;4807;48.024;11.726;2023-01-19T00:37:58;-0.80;99.90
9537;DHT22;4807;48.024;11.726;2023-01-19T00:41:06;-0.80;99.90
9537;DHT22;4807;48.024;11.726;2023-01-19T00:44:18;-0.80;99.90
9537;DHT22;4807;48.024;11.726;2023-01-19T00:47:26;-0.80;99.90
9537;DHT22;4807;48.024;11.726;2023-01-19T00:50:35;-0.80;99.90
9537;DHT22;4807;48.024;11.726;2023-01-19T00:53:43;-0.80;99.90
9537;DHT22;4807;48.024;11.726;2023-01-19T00:56:51;-0.90;99.90
9537;DHT22;4807;48.024;11.726;2023-01-19T01:00:02;-0.90;99.90
9537;DHT22;4807;48.024;11.726;2023-01-19T01:03:12;-0.80;99.90
9537;DHT22;4807;48.024;11.726;2023-01-19T01:06:21;-0.90;99.90
9537;DHT22;4807;48.024;11.726;2023-01-19T01:09:29;-0.90;99.90
9537;DHT22;4807;48.024;11.726;2023-01-19T01:12:38;-0.90;99.90
9537;DHT22;4807;48.024;11.726;2023-01-19T01:16:04;-0.90;99.90
9537;DHT22;4807;48.024;11.726;2023-01-19T01:19:13;-0.90;99.90
9537;DHT22;4807;48.024;11.726;2023-01-19T01:22:22;-1.00;99.90
9537;DHT22;4807;48.024;11.726;2023-01-19T01:25:31;-1.10;99.90
9537;DHT22;4807;48.024;11.726;2023-01-19T01:28:43;-1.10;99.90
9537;DHT22;4807;48.024;11.726;2023-01-19T01:31:52;-1.20;99.90
9537;DHT22;4807;48.024;11.726;2023-01-19T01:35:01;-1.10;99.90
9537;DHT22;4807;48.024;11.726;2023-01-19T01:38:09;-1.10;99.90
9537;DHT22;4807;48.024;11.726;2023-01-19T01:41:17;-1.10;99.90
9537;DHT22;4807;48.024;11.726;2023-01-19T01:44:46;-1.10;99.90
9537;DHT22;4807;48.024;11.726;2023-01-19T01:48:04;-1.20;99.90
9537;DHT22;4807;48.024;11.726;2023-01-19T01:51:22;-1.10;99.90
9537;DHT22;4807;48.024;11.726;2023-01-19T01:54:33;-1.10;99.90
9537;DHT22;4807;48.024;11.726;2023-01-19T01:57:45;-1.10;99.90
9537;DHT22;4807;48.024;11.726;2023-01-19T02:00:57;-1.10;99.90
9537;DHT22;4807;48.024;11.726;2023-01-19T02:04:24;-1.10;99.90
9537;DHT22;4807;48.024;11.726;2023-01-19T02:07:40;-1.10;99.90
9537;DHT22;4807;48.024;11.726;2023-01-19T02:11:10;-1.20;99.90
9537;DHT22;4807;48.024;11.726;2023-01-19T02:14:36;-1.20;99.90
9537;DHT22;4807;48.024;11.726;2023-01-19T02:17:44;-1.20;99.90
9537;DHT22;4807;48.024;11.726;2023-01-19T02:21:00;-1.20;99.90
9537;DHT22;4807;48.024;11.726;2023-01-19T02:24:15;-1.30;99.90
9537;DHT22;4807;48.024;11.726;2023-01-19T02:27:24;-1.30;99.90
9537;DHT22;4807;48.024;11.726;2023-01-19T02:30:33;-1.20;99.90
9537;DHT22;4807;48.024;11.726;2023-01-19T02:33:45;-1.20;99.90
9537;DHT22;4807;48.024;11.726;2023-01-19T02:36:56;-1.20;99.90
9537;DHT22;4807;48.024;11.726;2023-01-19T02:40:13;-1.20;99.90
9537;DHT22;4807;48.024;11.726;2023-01-19T02:43:28;-1.20;99.90
9537;DHT22;4807;48.024;11.726;2023-01-19T02:46:38;-1.30;99.90
9537;DHT22;4807;48.024;11.726;2023-01-19T02:49:53;-1.30;99.90
9537;DHT22;4807;48.024;11.726;2023-01-19T02:53:09;-1.30;99.90
9537;DHT22;4807;48.024;11.726;2023-01-19T02:56:44;-1.40;99.90
9537;DHT22;4807;48.024;11.726;2023-01-19T03:00:11;-1.40;99.90
9537;DHT22;4807;48.024;11.726;2023-01-19T03:03:31;-1.40;99.90
9537;DHT22;4807;48.024;11.726;2023-01-19T03:06:50;-1.40;99.90
9537;DHT22;4807;48.024;11.726;2023-01-19T03:10:06;-1.50;99.90
9537;DHT22;4807;48.024;11.726;2023-01-19T03:13:26;-1.50;99.90
9537;DHT22;4807;48.024;11.726;2023-01-19T03:16:42;-1.60;99.90
9537;DHT22;4807;48.024;11.726;2023-01-19T03:19:54;-1.60;99.90
9537;DHT22;4807;48.024;11.726;2023-01-19T03:23:07;-1.70;99.90
9537;DHT22;4807;48.024;11.726;2023-01-19T03:26:20;-1.70;99.90
9537;DHT22;4807;48.024;11.726;2023-01-19T03:29:34;-1.70;99.90
9537;DHT22;4807;48.024;11.726;2023-01-19T03:32:48;-1.70;99.90
9537;DHT22;4807;48.024;11.726;2023-01-19T03:36:02;-1.60;99.90
9537;DHT22;4807;48.024;11.726;2023-01-19T03:39:18;-1.70;99.90
9537;DHT22;4807;48.024;11.726;2023-01-19T03:42:29;-1.70;99.90
9537;DHT22;4807;48.024;11.726;2023-01-19T03:45:39;-1.70;99.90
9537;DHT22;4807;48.024;11.726;2023-01-19T03:48:48;-1.80;99.90
9537;DHT22;4807;48.024;11.726;2023-01-19T03:51:57;-1.80;99.90
9537;DHT22;4807;48.024;11.726;2023-01-19T03:55:07;-1.80;99.90
9537;DHT22;4807;48.024;11.726;2023-01-19T03:58:16;-1.90;99.90
9537;DHT22;4807;48.024;11.726;2023-01-19T04:01:26;-1.90;99.90
9537;DHT22;4807;48.024;11.726;2023-01-19T04:04:34;-2.00;99.90
9537;DHT22;4807;48.024;11.726;2023-01-19T04:07:42;-2.10;99.90
9537;DHT22;4807;48.024;11.726;2023-01-19T04:10:50;-2.20;99.90
9537;DHT22;4807;48.024;11.726;2023-01-19T04:13:58;-2.30;99.90
9537;DHT22;4807;48.024;11.726;2023-01-19T04:17:08;-2.40;99.90
9537;DHT22;4807;48.024;11.726;2023-01-19T04:20:16;-2.40;99.90
9537;DHT22;4807;48.024;11.726;2023-01-19T04:23:25;-2.40;99.90
9537;DHT22;4807;48.024;11.726;2023-01-19T04:26:34;-2.40;99.90
9537;DHT22;4807;48.024;11.726;2023-01-19T04:29:42;-2.40;99.90
9537;DHT22;4807;48.024;11.726;2023-01-19T04:32:52;-2.50;99.90
9537;DHT22;4807;48.024;11.726;2023-01-19T04:36:01;-2.40;99.90
9537;DHT22;4807;48.024;11.726;2023-01-19T04:39:10;-2.30;99.90
9537;DHT22;4807;48.024;11.726;2023-01-19T04:42:18;-2.20;99.90
9537;DHT22;4807;48.024;11.726;2023-01-19T04:45:27;-2.10;99.90
9537;DHT22;4807;48.024;11.726;2023-01-19T04:48:37;-2.00;99.90
9537;DHT22;4807;48.024;11.726;2023-01-19T04:51:47;-1.90;99.90
9537;DHT22;4807;48.024;11.726;2023-01-19T04:54:56;-1.90;99.90
9537;DHT22;4807;48.024;11.726;2023-01-19T04:58:04;-1.90;99.90
9537;DHT22;4807;48.024;11.726;2023-01-19T05:01:12;-1.80;99.90
9537;DHT22;4807;48.024;11.726;2023-01-19T05:04:23;-2.00;99.90
9537;DHT22;4807;48.024;11.726;2023-01-19T05:07:31;-2.00;99.90
9537;DHT22;4807;48.024;11.726;2023-01-19T05:10:41;-2.00;99.90
9537;DHT22;4807;48.024;11.726;2023-01-19T05:13:49;-2.00;99.90
9537;DHT22;4807;48.024;11.726;2023-01-19T05:16:57;-2.10;99.90
9537;DHT22;4807;48.024;11.726;2023-01-19T05:20:09;-2.20;99.90
9537;DHT22;4807;48.024;11.726;2023-01-19T05:23:22;-2.30;99.90
9537;DHT22;4807;48.024;11.726;2023-01-19T05:26:30;-2.40;99.90
9537;DHT22;4807;48.024;11.726;2023-01-19T05:29:38;-2.40;99.90
9537;DHT22;4807;48.024;11.726;2023-01-19T05:32:46;-2.30;99.90
9537;DHT22;4807;48.024;11.726;2023-01-19T05:35:56;-2.20;99.90
9537;DHT22;4807;48.024;11.726;2023-01-19T05:39:05;-2.20;99.90
9537;DHT22;4807;48.024;11.726;2023-01-19T05:42:13;-2.20;99.90
9537;DHT22;4807;48.024;11.726;2023-01-19T05:45:22;-2.30;99.90
9537;DHT22;4807;48.024;11.726;2023-01-19T05:48:31;-2.30;99.90
9537;DHT22;4807;48.024;11.726;2023-01-19T05:51:41;-2.30;99.90
9537;DHT22;4807;48.024;11.726;2023-01-19T05:54:51;-2.20;99.90
9537;DHT22;4807;48.024;11.726;2023-01-19T05:58:00;-2.20;99.90
9537;DHT22;4807;48.024;11.726;2023-01-19T06:01:09;-2.30;99.90
9537;DHT22;4807;48.024;11.726;2023-01-19T06:04:18;-2.30;99.90
9537;DHT22;4807;48.024;11.726;2023-01-19T06:07:28;-2.40;99.90
9537;DHT22;4807;48.024;11.726;2023-01-19T06:10:37;-2.40;99.90
9537;DHT22;4807;48.024;11.726;2023-01-19T06:13:45;-2.20;99.90
9537;DHT22;4807;48.024;11.726;2023-01-19T06:16:53;-2.20;99.90
9537;DHT22;4807;48.024;11.726;2023-01-19T06:20:02;-2.10;99.90
9537;DHT22;4807;48.024;11.726;2023-01-19T06:23:13;-2.00;99.90
9537;DHT22;4807;48.024;11.726;2023-01-19T06:26:21;-1.90;99.90
9537;DHT22;4807;48.024;11.726;2023-01-19T06:29:29;-1.90;99.90
9537;DHT22;4807;48.024;11.726;2023-01-19T06:32:37;-1.90;99.90
9537;DHT22;4807;48.024;11.726;2023-01-19T06:35:47;-1.90;99.90
9537;DHT22;4807;48.024;11.726;2023-01-19T06:38:58;-2.00;99.90
9537;DHT22;4807;48.024;11.726;2023-01-19T06:42:08;-2.10;99.90
9537;DHT22;4807;48.024;11.726;2023-01-19T06:45:17;-2.20;99.90
9537;DHT22;4807;48.024;11.726;2023-01-19T06:48:25;-2.40;99.90
9537;DHT22;4807;48.024;11.726;2023-01-19T06:51:34;-2.50;99.90
9537;DHT22;4807;48.024;11.726;2023-01-19T06:54:44;-2.40;99.90
9537;DHT22;4807;48.024;11.726;2023-01-19T06:57:56;-2.50;99.90
9537;DHT22;4807;48.024;11.726;2023-01-19T07:01:05;-2.60;99.90
9537;DHT22;4807;48.024;11.726;2023-01-19T07:04:14;-2.50;99.90
9537;DHT22;4807;48.024;11.726;2023-01-19T07:07:23;-2.40;99.90
9537;DHT22;4807;48.024;11.726;2023-01-19T07:10:32;-2.30;99.90
9537;DHT22;4807;48.024;11.726;2023-01-19T07:14:01;-2.30;99.90
9537;DHT22;4807;48.024;11.726;2023-01-19T07:17:11;-2.30;99.90
9537;DHT22;4807;48.024;11.726;2023-01-19T07:20:19;-2.40;99.90
9537;DHT22;4807;48.024;11.726;2023-01-19T07:23:28;-2.30;99.90
9537;DHT22;4807;48.024;11.726;2023-01-19T07:26:38;-2.40;99.90
9537;DHT22;4807;48.024;11.726;2023-01-19T07:29:46;-1.10;99.90
9537;DHT22;4807;48.024;11.726;2023-01-19T07:32:55;-2.40;99.90
9537;DHT22;4807;48.024;11.726;2023-01-19T07:36:05;-2.40;99.90
9537;DHT22;4807;48.024;11.726;2023-01-19T07:39:14;-2.30;99.90
9537;DHT22;4807;48.024;11.726;2023-01-19T07:42:24;-2.20;99.90
9537;DHT22;4807;48.024;11.726;2023-01-19T07:45:33;-2.10;99.90
9537;DHT22;4807;48.024;11.726;2023-01-19T07:48:42;-2.10;99.90
9537;DHT22;4807;48.024;11.726;2023-01-19T07:51:50;-1.90;99.90
9537;DHT22;4807;48.024;11.726;2023-01-19T07:55:02;-1.80;99.90
9537;DHT22;4807;48.024;11.726;2023-01-19T07:58:11;-1.80;99.90
9537;DHT22;4807;48.024;11.726;2023-01-19T08:01:20;-1.70;99.90
9537;DHT22;4807;48.024;11.726;2023-01-19T08:04:29;-1.60;99.90
9537;DHT22;4807;48.024;11.726;2023-01-19T08:07:37;-1.50;99.90
9537;DHT22;4807;48.024;11.726;2023-01-19T08:10:48;-1.30;99.90
9537;DHT22;4807;48.024;11.726;2023-01-19T08:13:58;-1.20;99.90
9537;DHT22;4807;48.024;11.726;2023-01-19T08:17:11;-1.10;99.90
9537;DHT22;4807;48.024;11.726;2023-01-19T08:20:20;-1.00;99.90
9537;DHT22;4807;48.024;11.726;2023-01-19T08:23:29;-1.00;99.90
9537;DHT22;4807;48.024;11.726;2023-01-19T08:26:37;-1.00;99.90
9537;DHT22;4807;48.024;11.726;2023-01-19T08:29:46;-0.90;99.90
9537;DHT22;4807;48.024;11.726;2023-01-19T08:32:55;-0.80;99.90
9537;DHT22;4807;48.024;11.726;2023-01-19T08:36:10;-0.80;99.90
9537;DHT22;4807;48.024;11.726;2023-01-19T08:39:19;-0.80;99.90
9537;DHT22;4807;48.024;11.726;2023-01-19T08:42:29;-0.80;99.90
9537;DHT22;4807;48.024;11.726;2023-01-19T08:45:40;-0.80;99.90
9537;DHT22;4807;48.024;11.726;2023-01-19T08:48:54;-0.70;99.90
9537;DHT22;4807;48.024;11.726;2023-01-19T08:52:03;-0.70;99.90
9537;DHT22;4807;48.024;11.726;2023-01-19T08:55:11;-0.80;99.90
9537;DHT22;4807;48.024;11.726;2023-01-19T08:58:19;-0.70;99.90
9537;DHT22;4807;48.024;11.726;2023-01-19T09:01:29;-0.70;99.90
9537;DHT22;4807;48.024;11.726;2023-01-19T09:04:37;-0.60;99.90
9537;DHT22;4807;48.024;11.726;2023-01-19T09:07:46;-0.60;99.90
9537;DHT22;4807;48.024;11.726;2023-01-19T09:10:54;-0.50;99.90
9537;DHT22;4807;48.024;11.726;2023-01-19T09:14:03;-0.40;99.90
9537;DHT22;4807;48.024;11.726;2023-01-19T09:17:12;-0.30;99.90
9537;DHT22;4807;48.024;11.726;2023-01-19T09:20:23;-0.20;99.90
9537;DHT22;4807;48.024;11.726;2023-01-19T09:23:31;-0.10;99.90
9537;DHT22;4807;48.024;11.726;2023-01-19T09:26:40;-0.10;99.90
9537;DHT22;4807;48.024;11.726;2023-01-19T09:29:48;0.00;99.90
9537;DHT22;4807;48.024;11.726;2023-01-19T09:33:05;-0.10;99.90
9537;DHT22;4807;48.024;11.726;2023-01-19T09:36:16;-0.20;99.90
9537;DHT22;4807;48.024;11.726;2023-01-19T09:39:24;-0.20;99.90
9537;DHT22;4807;48.024;11.726;2023-01-19T09:42:38;-0.10;99.90
9537;DHT22;4807;48.024;11.726;2023-01-19T09:45:52;0.00;99.90
9537;DHT22;4807;48.024;11.726;2023-01-19T09:49:11;0.20;99.90
9537;DHT22;4807;48.024;11.726;2023-01-19T09:52:22;0.20;99.90
9537;DHT22;4807;48.024;11.726;2023-01-19T09:55:31;0.20;99.90
9537;DHT22;4807;48.024;11.726;2023-01-19T09:58:40;0.20;99.90
9537;DHT22;4807;48.024;11.726;2023-01-19T10:02:02;0.30;99.90
9537;DHT22;4807;48.024;11.726;2023-01-19T10:05:27;0.40;99.90
9537;DHT22;4807;48.024;11.726;2023-01-19T10:08:43;0.40;99.40
9537;DHT22;4807;48.024;11.726;2023-01-19T10:12:03;0.30;99.40
9537;DHT22;4807;48.024;11.726;2023-01-19T10:15:26;0.20;99.60
9537;DHT22;4807;48.024;11.726;2023-01-19T10:18:42;0.30;99.90
9537;DHT22;4807;48.024;11.726;2023-01-19T10:21:57;0.40;99.80
9537;DHT22;4807;48.024;11.726;2023-01-19T10:25:14;0.50;99.20
9537;DHT22;4807;48.024;11.726;2023-01-19T10:28:27;2.30;99.90
9537;DHT22;4807;48.024;11.726;2023-01-19T10:31:37;0.50;99.10
9537;DHT22;4807;48.024;11.726;2023-01-19T10:34:48;0.50;98.70
9537;DHT22;4807;48.024;11.726;2023-01-19T10:38:00;0.40;98.90
9537;DHT22;4807;48.024;11.726;2023-01-19T10:41:13;0.40;99.00
9537;DHT22;4807;48.024;11.726;2023-01-19T10:44:27;0.40;99.00
9537;DHT22;4807;48.024;11.726;2023-01-19T10:47:41;0.60;99.10
9537;DHT22;4807;48.024;11.726;2023-01-19T10:51:00;0.50;97.90
9537;DHT22;4807;48.024;11.726;2023-01-19T10:54:12;0.50;98.40
9537;DHT22;4807;48.024;11.726;2023-01-19T10:57:25;0.60;98.40
9537;DHT22;4807;48.024;11.726;2023-01-19T11:00:37;0.70;98.20
9537;DHT22;4807;48.024;11.726;2023-01-19T11:03:49;0.60;97.90
9537;DHT22;4807;48.024;11.726;2023-01-19T11:07:13;0.70;97.10
9537;DHT22;4807;48.024;11.726;2023-01-19T11:10:26;0.60;96.90
9537;DHT22;4807;48.024;11.726;2023-01-19T11:13:35;0.50;97.40
9537;DHT22;4807;48.024;11.726;2023-01-19T11:16:47;0.60;97.70
9537;DHT22;4807;48.024;11.726;2023-01-19T11:19:59;0.70;97.40
9537;DHT22;4807;48.024;11.726;2023-01-19T11:23:18;0.60;97.50
9537;DHT22;4807;48.024;11.726;2023-01-19T11:26:40;0.70;97.70
9537;DHT22;4807;48.024;11.726;2023-01-19T11:29:59;0.70;97.20
9537;DHT22;4807;48.024;11.726;2023-01-19T11:33:23;0.70;97.50
9537;DHT22;4807;48.024;11.726;2023-01-19T11:36:35;0.80;97.20
9537;DHT22;4807;48.024;11.726;2023-01-19T11:39:46;0.90;96.90
9537;DHT22;4807;48.024;11.726;2023-01-19T11:42:57;0.90;96.50
9537;DHT22;4807;48.024;11.726;2023-01-19T11:46:11;0.90;96.50
9537;DHT22;4807;48.024;11.726;2023-01-19T11:49:26;0.90;96.70
9537;DHT22;4807;48.024;11.726;2023-01-19T11:52:43;1.00;96.20
9537;DHT22;4807;48.024;11.726;2023-01-19T11:55:57;1.10;96.20
9537;DHT22;4807;48.024;11.726;2023-01-19T11:59:11;1.00;95.50
9537;DHT22;4807;48.024;11.726;2023-01-19T12:02:25;1.00;95.90
9537;DHT22;4807;48.024;11.726;2023-01-19T12:05:39;1.10;96.20
9537;DHT22;4807;48.024;11.726;2023-01-19T12:08:55;1.20;95.80
9537;DHT22;4807;48.024;11.726;2023-01-19T12:12:09;1.30;95.70
9537;DHT22;4807;48.024;11.726;2023-01-19T12:15:28;1.40;95.50
9537;DHT22;4807;48.024;11.726;2023-01-19T12:18:43;1.40;95.00
9537;DHT22;4807;48.024;11.726;2023-01-19T12:21:54;1.40;94.90
9537;DHT22;4807;48.024;11.726;2023-01-19T12:25:12;1.50;95.10
9537;DHT22;4807;48.024;11.726;2023-01-19T12:28:29;1.60;95.70
9537;DHT22;4807;48.024;11.726;2023-01-19T12:31:41;1.70;94.90
9537;DHT22;4807;48.024;11.726;2023-01-19T12:34:50;1.60;94.50
9537;DHT22;4807;48.024;11.726;2023-01-19T12:37:58;1.60;94.20
9537;DHT22;4807;48.024;11.726;2023-01-19T12:41:21;1.60;94.20
9537;DHT22;4807;48.024;11.726;2023-01-19T12:44:33;1.70;93.90
9537;DHT22;4807;48.024;11.726;2023-01-19T12:47:49;1.70;93.80
9537;DHT22;4807;48.024;11.726;2023-01-19T12:50:58;1.50;93.00
9537;DHT22;4807;48.024;11.726;2023-01-19T12:54:07;1.20;93.50
9537;DHT22;4807;48.024;11.726;2023-01-19T12:57:30;1.00;93.30
9537;DHT22;4807;48.024;11.726;2023-01-19T13:00:43;1.10;94.00
9537;DHT22;4807;48.024;11.726;2023-01-19T13:04:00;1.20;93.60
9537;DHT22;4807;48.024;11.726;2023-01-19T13:07:10;1.20;93.60
9537;DHT22;4807;48.024;11.726;2023-01-19T13:14:34;1.30;93.50
9537;DHT22;4807;48.024;11.726;2023-01-19T13:17:48;1.40;93.10
9537;DHT22;4807;48.024;11.726;2023-01-19T13:21:04;1.40;93.10
9537;DHT22;4807;48.024;11.726;2023-01-19T13:24:15;1.40;93.10
9537;DHT22;4807;48.024;11.726;2023-01-19T13:27:27;1.40;93.50
9537;DHT22;4807;48.024;11.726;2023-01-19T13:30:49;1.40;92.70
9537;DHT22;4807;48.024;11.726;2023-01-19T13:34:03;1.30;93.10
9537;DHT22;4807;48.024;11.726;2023-01-19T13:37:21;1.30;93.30
9537;DHT22;4807;48.024;11.726;2023-01-19T13:40:35;1.20;93.00
9537;DHT22;4807;48.024;11.726;2023-01-19T13:43:46;1.20;93.70
9537;DHT22;4807;48.024;11.726;2023-01-19T13:46:59;1.30;93.70
9537;DHT22;4807;48.024;11.726;2023-01-19T13:50:18;0.00;93.40
9537;DHT22;4807;48.024;11.726;2023-01-19T13:53:29;1.30;93.50
9537;DHT22;4807;48.024;11.726;2023-01-19T13:56:38;1.30;93.50
9537;DHT22;4807;48.024;11.726;2023-01-19T14:00:02;1.30;93.30
9537;DHT22;4807;48.024;11.726;2023-01-19T14:03:17;1.30;92.60
9537;DHT22;4807;48.024;11.726;2023-01-19T14:06:32;1.30;92.80
9537;DHT22;4807;48.024;11.726;2023-01-19T14:09:45;1.40;93.60
9537;DHT22;4807;48.024;11.726;2023-01-19T14:13:00;1.40;93.00
9537;DHT22;4807;48.024;11.726;2023-01-19T14:16:21;1.40;92.50
9537;DHT22;4807;48.024;11.726;2023-01-19T14:19:46;1.40;92.30
9537;DHT22;4807;48.024;11.726;2023-01-19T14:22:55;1.30;92.80
9537;DHT22;4807;48.024;11.726;2023-01-19T14:26:05;1.30;93.00
9537;DHT22;4807;48.024;11.726;2023-01-19T14:29:17;1.30;92.80
9537;DHT22;4807;48.024;11.726;2023-01-19T14:32:44;1.30;92.90
9537;DHT22;4807;48.024;11.726;2023-01-19T14:35:53;1.20;93.40
9537;DHT22;4807;48.024;11.726;2023-01-19T14:39:02;1.10;93.20
9537;DHT22;4807;48.024;11.726;2023-01-19T14:42:14;1.10;93.20
9537;DHT22;4807;48.024;11.726;2023-01-19T14:45:29;1.10;93.60
9537;DHT22;4807;48.024;11.726;2023-01-19T14:48:45;1.00;93.60
9537;DHT22;4807;48.024;11.726;2023-01-19T14:51:54;1.00;93.30
9537;DHT22;4807;48.024;11.726;2023-01-19T14:55:04;0.90;93.60
9537;DHT22;4807;48.024;11.726;2023-01-19T14:58:18;0.80;93.60
9537;DHT22;4807;48.024;11.726;2023-01-19T15:01:28;0.80;93.90
9537;DHT22;4807;48.024;11.726;2023-01-19T15:04:37;0.80;93.50
9537;DHT22;4807;48.024;11.726;2023-01-19T15:07:45;0.80;93.90
9537;DHT22;4807;48.024;11.726;2023-01-19T15:10:54;0.70;93.80
9537;DHT22;4807;48.024;11.726;2023-01-19T15:14:05;0.70;93.70
9537;DHT22;4807;48.024;11.726;2023-01-19T15:17:16;0.60;94.30
9537;DHT22;4807;48.024;11.726;2023-01-19T15:20:32;0.50;94.40
9537;DHT22;4807;48.024;11.726;2023-01-19T15:23:40;0.50;94.70
9537;DHT22;4807;48.024;11.726;2023-01-19T15:26:49;0.60;94.60
9537;DHT22;4807;48.024;11.726;2023-01-19T15:29:59;0.60;94.10
9537;DHT22;4807;48.024;11.726;2023-01-19T15:33:10;0.50;94.60
9537;DHT22;4807;48.024;11.726;2023-01-19T15:36:24;0.50;94.90
9537;DHT22;4807;48.024;11.726;2023-01-19T15:39:32;0.50;94.20
9537;DHT22;4807;48.024;11.726;2023-01-19T15:42:41;0.40;94.60
9537;DHT22;4807;48.024;11.726;2023-01-19T15:45:54;0.40;95.30
9537;DHT22;4807;48.024;11.726;2023-01-19T15:49:07;0.30;94.90
9537;DHT22;4807;48.024;11.726;2023-01-19T15:52:16;0.40;94.80
9537;DHT22;4807;48.024;11.726;2023-01-19T15:55:24;0.30;94.90
9537;DHT22;4807;48.024;11.726;2023-01-19T15:58:33;0.20;94.90
9537;DHT22;4807;48.024;11.726;2023-01-19T16:01:43;0.20;95.20
9537;DHT22;4807;48.024;11.726;2023-01-19T16:04:51;0.10;95.60
9537;DHT22;4807;48.024;11.726;2023-01-19T16:07:59;0.10;95.30
9537;DHT22;4807;48.024;11.726;2023-01-19T16:11:09;0.10;95.00
9537;DHT22;4807;48.024;11.726;2023-01-19T16:14:19;0.00;95.30
9537;DHT22;4807;48.024;11.726;2023-01-19T16:17:29;0.00;95.40
9537;DHT22;4807;48.024;11.726;2023-01-19T16:20:37;-0.20;95.60
9537;DHT22;4807;48.024;11.726;2023-01-19T16:23:46;-0.30;95.90
9537;DHT22;4807;48.024;11.726;2023-01-19T16:26:54;-0.20;95.60
9537;DHT22;4807;48.024;11.726;2023-01-19T16:30:03;-0.40;95.70
9537;DHT22;4807;48.024;11.726;2023-01-19T16:33:14;-0.40;96.40
9537;DHT22;4807;48.024;11.726;2023-01-19T16:36:25;-0.50;96.00
9537;DHT22;4807;48.024;11.726;2023-01-19T16:39:34;-0.40;96.30
9537;DHT22;4807;48.024;11.726;2023-01-19T16:42:42;-0.30;96.10
9537;DHT22;4807;48.024;11.726;2023-01-19T16:45:58;-0.20;95.20
9537;DHT22;4807;48.024;11.726;2023-01-19T16:49:12;-0.10;95.20
9537;DHT22;4807;48.024;11.726;2023-01-19T16:52:22;-0.30;95.60
9537;DHT22;4807;48.024;11.726;2023-01-19T16:55:30;-0.40;96.20
9537;DHT22;4807;48.024;11.726;2023-01-19T16:58:39;-0.50;96.20
9537;DHT22;4807;48.024;11.726;2023-01-19T17:01:49;-0.70;96.50
9537;DHT22;4807;48.024;11.726;2023-01-19T17:04:59;-0.70;96.90
9537;DHT22;4807;48.024;11.726;2023-01-19T17:08:07;-0.80;96.90
9537;DHT22;4807;48.024;11.726;2023-01-19T17:11:17;-0.80;96.70
9537;DHT22;4807;48.024;11.726;2023-01-19T17:14:26;-0.90;96.80
9537;DHT22;4807;48.024;11.726;2023-01-19T17:17:34;-0.90;96.80
9537;DHT22;4807;48.024;11.726;2023-01-19T17:20:45;-0.90;96.90
9537;DHT22;4807;48.024;11.726;2023-01-19T17:23:55;-0.80;96.50
9537;DHT22;4807;48.024;11.726;2023-01-19T17:27:04;-0.80;96.70
9537;DHT22;4807;48.024;11.726;2023-01-19T17:30:13;-0.80;96.90
9537;DHT22;4807;48.024;11.726;2023-01-19T17:33:23;-0.80;96.80
9537;DHT22;4807;48.024;11.726;2023-01-19T17:36:32;-0.80;96.90
9537;DHT22;4807;48.024;11.726;2023-01-19T17:39:41;-0.80;96.90
9537;DHT22;4807;48.024;11.726;2023-01-19T17:42:49;-0.90;97.10
9537;DHT22;4807;48.024;11.726;2023-01-19T17:45:58;-0.90;96.90
9537;DHT22;4807;48.024;11.726;2023-01-19T17:49:07;-0.90;96.90
9537;DHT22;4807;48.024;11.726;2023-01-19T17:52:16;-1.00;97.00
9537;DHT22;4807;48.024;11.726;2023-01-19T17:55:25;-1.00;97.20
9537;DHT22;4807;48.024;11.726;2023-01-19T17:58:34;-1.00;97.00
9537;DHT22;4807;48.024;11.726;2023-01-19T18:01:42;-1.00;97.20
9537;DHT22;4807;48.024;11.726;2023-01-19T18:04:52;-1.00;97.20
9537;DHT22;4807;48.024;11.726;2023-01-19T18:08:01;-1.00;97.50
9537;DHT22;4807;48.024;11.726;2023-01-19T18:11:10;-1.00;97.80
9537;DHT22;4807;48.024;11.726;2023-01-19T18:14:19;-1.00;98.00
9537;DHT22;4807;48.024;11.726;2023-01-19T18:17:28;-1.00;98.10
9537;DHT22;4807;48.024;11.726;2023-01-19T18:20:37;-0.80;97.70
9537;DHT22;4807;48.024;11.726;2023-01-19T18:23:47;-1.00;97.60
9537;DHT22;4807;48.024;11.726;2023-01-19T18:26:56;-1.00;98.20
9537;DHT22;4807;48.024;11.726;2023-01-19T18:30:06;-1.10;98.50
9537;DHT22;4807;48.024;11.726;2023-01-19T18:33:15;-1.10;98.70
9537;DHT22;4807;48.024;11.726;2023-01-19T18:36:23;-1.10;98.70
9537;DHT22;4807;48.024;11.726;2023-01-19T18:39:33;-1.10;98.70
9537;DHT22;4807;48.024;11.726;2023-01-19T18:42:42;-1.10;98.80
9537;DHT22;4807;48.024;11.726;2023-01-19T18:45:51;-1.10;98.50
9537;DHT22;4807;48.024;11.726;2023-01-19T18:48:59;-1.20;98.80
9537;DHT22;4807;48.024;11.726;2023-01-19T18:52:08;-1.30;98.70
9537;DHT22;4807;48.024;11.726;2023-01-19T18:55:18;-1.30;98.90
9537;DHT22;4807;48.024;11.726;2023-01-19T18:58:26;-1.40;98.80
9537;DHT22;4807;48.024;11.726;2023-01-19T19:01:35;-1.40;99.10
9537;DHT22;4807;48.024;11.726;2023-01-19T19:04:44;-1.40;99.30
9537;DHT22;4807;48.024;11.726;2023-01-19T19:07:52;-1.40;99.70
9537;DHT22;4807;48.024;11.726;2023-01-19T19:11:03;-1.40;99.70
9537;DHT22;4807;48.024;11.726;2023-01-19T19:14:13;-1.40;99.70
9537;DHT22;4807;48.024;11.726;2023-01-19T19:17:23;-1.40;99.50
9537;DHT22;4807;48.024;11.726;2023-01-19T19:20:32;-1.20;99.60
9537;DHT22;4807;48.024;11.726;2023-01-19T19:23:40;-1.10;98.80
9537;DHT22;4807;48.024;11.726;2023-01-19T19:26:50;-1.20;99.00
9537;DHT22;4807;48.024;11.726;2023-01-19T19:29:58;-1.50;99.70
9537;DHT22;4807;48.024;11.726;2023-01-19T19:33:06;-1.40;99.50
9537;DHT22;4807;48.024;11.726;2023-01-19T19:36:14;-1.50;99.50
9537;DHT22;4807;48.024;11.726;2023-01-19T19:39:23;-1.70;99.90
9537;DHT22;4807;48.024;11.726;2023-01-19T19:42:34;-1.90;99.90
9537;DHT22;4807;48.024;11.726;2023-01-19T19:45:42;-2.00;99.90
9537;DHT22;4807;48.024;11.726;2023-01-19T19:48:51;-2.00;99.90
9537;DHT22;4807;48.024;11.726;2023-01-19T19:52:00;-2.10;99.90
9537;DHT22;4807;48.024;11.726;2023-01-19T19:55:09;-2.00;99.90
9537;DHT22;4807;48.024;11.726;2023-01-19T19:58:19;-2.10;99.90
9537;DHT22;4807;48.024;11.726;2023-01-19T20:01:29;-2.00;99.90
9537;DHT22;4807;48.024;11.726;2023-01-19T20:04:39;-2.00;99.90
9537;DHT22;4807;48.024;11.726;2023-01-19T20:07:48;-1.90;99.90
9537;DHT22;4807;48.024;11.726;2023-01-19T20:11:03;-1.90;99.90
9537;DHT22;4807;48.024;11.726;2023-01-19T20:14:17;-1.90;99.90
9537;DHT22;4807;48.024;11.726;2023-01-19T20:17:27;-0.50;99.90
9537;DHT22;4807;48.024;11.726;2023-01-19T20:20:36;-1.60;99.90
9537;DHT22;4807;48.024;11.726;2023-01-19T20:23:46;-1.70;99.90
9537;DHT22;4807;48.024;11.726;2023-01-19T20:26:55;-2.00;99.90
9537;DHT22;4807;48.024;11.726;2023-01-19T20:30:06;-2.10;99.90
9537;DHT22;4807;48.024;11.726;2023-01-19T20:33:15;-2.20;99.90
9537;DHT22;4807;48.024;11.726;2023-01-19T20:36:24;-2.20;99.90